Time;durP1;ratioP1;P1;durP2;ratioP2;P2;SDS_P1;SDS_P2;PMS_P1;PMS_P2;Temp;Humidity;BMP_temperature;BMP_pressure;BME280_temperature;BME280_humidity;BME280_pressure;Samples;Min_cycle;Max_cycle;Signal;HPM_P1;HPM_P2
2022/04/14 00:00:17;;;;;;;13.60;7.75;;;12.90;99.90;;;;;;5070746;28;20088;-54
2022/04/14 00:02:43;;;;;;;10.32;7.57;;;12.80;99.90;;;;;;5069687;28;20044;-55
2022/04/14 00:05:09;;;;;;;15.10;7.78;;;12.80;99.90;;;;;;5071079;28;20058;-55
2022/04/14 00:07:36;;;;;;;12.25;7.35;;;12.80;99.90;;;;;;5069319;28;20454;-56
2022/04/14 00:10:05;;;;;;;10.68;7.47;;;12.70;99.90;;;;;;5069777;28;20045;-57
2022/04/14 00:12:31;;;;;;;13.48;7.95;;;12.70;99.90;;;;;;5069401;28;20075;-55
2022/04/14 00:14:57;;;;;;;12.07;7.57;;;12.70;99.90;;;;;;5069773;28;20596;-55
2022/04/14 00:17:23;;;;;;;12.55;7.65;;;12.70;99.90;;;;;;5069278;28;20083;-54
2022/04/14 00:19:49;;;;;;;14.43;8.18;;;12.70;99.90;;;;;;5070296;28;20072;-57
2022/04/14 00:22:14;;;;;;;14.95;8.13;;;12.70;99.90;;;;;;5053019;28;20048;-55
2022/04/14 00:24:40;;;;;;;14.77;8.68;;;12.70;99.90;;;;;;5069846;28;20048;-52
2022/04/14 00:27:06;;;;;;;12.63;8.50;;;12.60;99.90;;;;;;5069680;28;20048;-52
2022/04/14 00:29:32;;;;;;;17.02;8.60;;;12.60;99.90;;;;;;5051849;28;20074;-54
2022/04/14 00:31:57;;;;;;;15.23;8.90;;;12.60;99.90;;;;;;5071071;28;20060;-54
2022/04/14 00:34:23;;;;;;;11.82;8.45;;;12.50;99.90;;;;;;5069102;28;20055;-55
2022/04/14 00:36:49;;;;;;;13.50;8.30;;;12.50;99.90;;;;;;5069592;28;20087;-55
2022/04/14 00:39:14;;;;;;;12.80;9.30;;;12.50;99.90;;;;;;5052954;28;20432;-54
2022/04/14 00:41:40;;;;;;;15.75;9.27;;;12.50;99.90;;;;;;5070338;28;20036;-56
2022/04/14 00:44:06;;;;;;;11.90;8.50;;;12.40;99.90;;;;;;5069388;28;20124;-51
2022/04/14 00:46:32;;;;;;;14.55;9.07;;;12.40;99.90;;;;;;5070219;28;20048;-55
2022/04/14 00:48:58;;;;;;;13.55;9.13;;;12.40;99.90;;;;;;5069416;28;20470;-54
2022/04/14 00:51:24;;;;;;;15.48;9.27;;;12.40;99.90;;;;;;5068985;28;20375;-53
2022/04/14 00:53:50;;;;;;;14.52;9.40;;;12.40;99.90;;;;;;5069302;28;20040;-53
2022/04/14 00:56:16;;;;;;;15.88;9.75;;;12.30;99.90;;;;;;5069210;28;20044;-53
2022/04/14 00:58:41;;;;;;;12.27;10.00;;;12.30;99.90;;;;;;5070060;28;20062;-55
2022/04/14 01:01:08;;;;;;;17.08;9.70;;;12.30;99.90;;;;;;5069283;28;20490;-53
2022/04/14 01:03:35;;;;;;;15.07;9.98;;;12.30;99.90;;;;;;5068968;28;20044;-54
2022/04/14 01:06:02;;;;;;;15.93;9.52;;;12.20;99.90;;;;;;5069381;28;20052;-55
2022/04/14 01:08:29;;;;;;;15.10;10.18;;;12.20;99.90;;;;;;5069951;28;20058;-53
2022/04/14 01:10:57;;;;;;;15.13;10.27;;;12.20;99.90;;;;;;5070377;28;20045;-55
2022/04/14 01:13:23;;;;;;;16.20;10.27;;;12.10;99.90;;;;;;5069138;28;20048;-60
2022/04/14 01:15:49;;;;;;;16.27;10.48;;;12.10;99.90;;;;;;5070150;28;20389;-54
2022/04/14 01:18:15;;;;;;;17.23;10.27;;;12.10;99.90;;;;;;5070088;28;20044;-55
2022/04/14 01:20:42;;;;;;;17.83;10.95;;;12.00;99.90;;;;;;5068943;28;20372;-55
2022/04/14 01:23:10;;;;;;;17.77;11.07;;;12.00;99.90;;;;;;5069494;28;20060;-55
2022/04/14 01:25:39;;;;;;;13.73;10.65;;;12.00;99.90;;;;;;5070038;28;20048;-54
2022/04/14 01:28:06;;;;;;;20.50;11.48;;;11.90;99.90;;;;;;5069447;28;20117;-52
2022/04/14 01:30:32;;;;;;;19.73;11.30;;;11.90;99.90;;;;;;5069459;28;20079;-53
2022/04/14 01:32:58;;;;;;;16.08;11.27;;;11.80;99.90;;;;;;5072897;28;20409;-51
2022/04/14 01:35:24;;;;;;;16.63;11.43;;;11.80;99.90;;;;;;5072807;28;20051;-54
2022/04/14 01:37:50;;;;;;;18.08;12.07;;;11.80;99.90;;;;;;5072207;28;20056;-50
2022/04/14 01:40:16;;;;;;;19.45;12.90;;;11.80;99.90;;;;;;5072545;28;20482;-53
2022/04/14 01:42:42;;;;;;;20.10;11.75;;;11.80;99.90;;;;;;5072210;28;20051;-53
2022/04/14 01:45:10;;;;;;;17.42;11.80;;;11.80;99.90;;;;;;5072784;28;20131;-54
2022/04/14 01:47:44;;;;;;;19.70;12.57;;;11.80;99.90;;;;;;5072263;28;20067;-56
2022/04/14 01:50:14;;;;;;;20.85;12.48;;;11.70;99.90;;;;;;5073750;28;20048;-53
2022/04/14 01:52:41;;;;;;;20.00;12.85;;;11.70;99.90;;;;;;5073223;28;20048;-53
2022/04/14 01:55:08;;;;;;;21.13;12.50;;;11.70;99.90;;;;;;5072689;28;20102;-54
2022/04/14 01:57:33;;;;;;;18.92;12.98;;;11.60;99.90;;;;;;5072935;28;20044;-52
2022/04/14 02:00:01;;;;;;;19.50;13.32;;;11.60;99.90;;;;;;5055514;28;20486;-55
2022/04/14 02:02:26;;;;;;;20.52;13.40;;;11.60;99.90;;;;;;5073468;28;20105;-54
2022/04/14 02:04:53;;;;;;;21.08;13.88;;;11.60;99.90;;;;;;5073021;28;20037;-55
2022/04/14 02:07:19;;;;;;;22.10;14.48;;;11.60;99.90;;;;;;5072227;28;20041;-53
2022/04/14 02:09:45;;;;;;;21.88;14.13;;;11.60;99.90;;;;;;5071470;28;20142;-51
2022/04/14 02:12:12;;;;;;;20.90;13.90;;;11.60;99.90;;;;;;5055590;28;20371;-54
2022/04/14 02:14:39;;;;;;;22.92;13.88;;;11.50;99.90;;;;;;5072776;28;20060;-58
2022/04/14 02:17:05;;;;;;;21.08;13.73;;;11.50;99.90;;;;;;5038197;28;20045;-55
2022/04/14 02:19:31;;;;;;;23.05;14.60;;;11.50;99.90;;;;;;5055093;28;20513;-59
2022/04/14 02:22:00;;;;;;;20.65;14.80;;;11.50;99.90;;;;;;5055304;28;20049;-56
2022/04/14 02:24:26;;;;;;;22.33;14.93;;;11.50;99.90;;;;;;5072902;28;20509;-55
2022/04/14 02:26:53;;;;;;;22.30;15.52;;;11.40;99.90;;;;;;5072793;28;20045;-56
2022/04/14 02:29:19;;;;;;;22.38;16.10;;;11.40;99.90;;;;;;5073093;28;20127;-54
2022/04/14 02:31:45;;;;;;;23.38;14.88;;;11.40;99.90;;;;;;5072529;28;20052;-56
2022/04/14 02:34:11;;;;;;;23.50;16.63;;;11.40;99.90;;;;;;5072782;28;20053;-55
2022/04/14 02:36:37;;;;;;;21.30;15.27;;;11.40;99.90;;;;;;5071139;28;20048;-58
2022/04/14 02:39:03;;;;;;;23.45;16.13;;;11.30;99.90;;;;;;5072573;28;20044;-54
2022/04/14 02:41:29;;;;;;;19.48;15.40;;;11.30;99.90;;;;;;5072710;28;20110;-54
2022/04/14 02:43:55;;;;;;;24.65;16.35;;;11.20;99.90;;;;;;5071708;28;20402;-52
2022/04/14 02:46:20;;;;;;;23.77;15.82;;;11.20;99.90;;;;;;5072215;28;20063;-55
2022/04/14 02:48:46;;;;;;;25.02;16.45;;;11.20;99.90;;;;;;5072184;28;20044;-53
2022/04/14 02:51:12;;;;;;;22.85;16.48;;;11.10;99.90;;;;;;5072557;28;20127;-53
2022/04/14 02:53:37;;;;;;;24.70;16.25;;;11.10;99.90;;;;;;5071111;28;20128;-54
2022/04/14 02:56:05;;;;;;;30.67;17.00;;;11.10;99.90;;;;;;5072360;28;20052;-56
2022/04/14 02:58:32;;;;;;;26.60;16.75;;;11.00;99.90;;;;;;5072218;28;20585;-53
2022/04/14 03:00:57;;;;;;;21.42;16.35;;;11.00;99.90;;;;;;5070488;28;20470;-53
2022/04/14 03:03:24;;;;;;;22.67;16.50;;;11.00;99.90;;;;;;5071210;28;20212;-55
2022/04/14 03:05:50;;;;;;;24.50;16.52;;;11.00;99.90;;;;;;5071039;28;20053;-54
2022/04/14 03:08:17;;;;;;;25.73;16.85;;;10.90;99.90;;;;;;5072562;28;20456;-54
2022/04/14 03:10:43;;;;;;;33.67;18.35;;;10.90;99.90;;;;;;5070685;28;20052;-54
2022/04/14 03:13:09;;;;;;;24.27;16.48;;;10.90;99.90;;;;;;5054325;28;20055;-53
2022/04/14 03:15:34;;;;;;;28.55;17.40;;;10.80;99.90;;;;;;5070982;28;20093;-54
2022/04/14 03:18:00;;;;;;;30.10;18.67;;;;;;;;;;5070378;28;20314;-54
2022/04/14 03:20:26;;;;;;;24.05;17.83;;;10.80;99.90;;;;;;5054461;28;20049;-51
2022/04/14 03:22:52;;;;;;;25.52;18.52;;;10.70;99.90;;;;;;5070480;28;20059;-57
2022/04/14 03:25:18;;;;;;;30.23;19.42;;;10.70;99.90;;;;;;5071871;28;20405;-54
2022/04/14 03:27:44;;;;;;;28.25;20.02;;;10.70;99.90;;;;;;5071609;28;20048;-54
2022/04/14 03:30:10;;;;;;;27.77;20.13;;;10.60;99.90;;;;;;5070700;28;20135;-54
2022/04/14 03:32:44;;;;;;;31.17;19.92;;;10.60;99.90;;;;;;5070096;28;20064;-54
2022/04/14 03:35:11;;;;;;;30.92;20.48;;;10.50;99.90;;;;;;5071643;28;20052;-53
2022/04/14 03:37:38;;;;;;;29.13;21.00;;;10.60;99.90;;;;;;5070221;28;20033;-52
2022/04/14 03:40:05;;;;;;;31.00;21.50;;;10.50;99.90;;;;;;5069993;28;20036;-56
2022/04/14 03:42:30;;;;;;;30.00;21.58;;;10.50;99.90;;;;;;5070508;28;20090;-53
2022/04/14 03:44:58;;;;;;;32.92;22.25;;;10.50;99.90;;;;;;5071472;28;20050;-53
2022/04/14 03:47:24;;;;;;;33.42;21.90;;;10.40;99.90;;;;;;5070342;28;20049;-56
2022/04/14 03:49:50;;;;;;;33.83;22.60;;;10.40;99.90;;;;;;5071095;28;20060;-54
2022/04/14 03:52:16;;;;;;;35.25;21.55;;;10.40;99.90;;;;;;5070170;28;20052;-52
2022/04/14 03:54:42;;;;;;;36.30;21.77;;;10.30;99.90;;;;;;5070486;28;20040;-60
2022/04/14 03:57:08;;;;;;;29.80;20.67;;;10.30;99.90;;;;;;5071323;28;20044;-57
2022/04/14 03:59:33;;;;;;;31.10;22.08;;;10.30;99.90;;;;;;5053829;28;20087;-54
2022/04/14 04:01:59;;;;;;;30.48;21.42;;;10.30;99.90;;;;;;5071059;28;20068;-53
2022/04/14 04:04:25;;;;;;;33.17;21.00;;;10.30;99.90;;;;;;5070168;28;20052;-56
2022/04/14 04:06:53;;;;;;;33.33;21.67;;;10.20;99.90;;;;;;5070971;28;20036;-54
2022/04/14 04:09:20;;;;;;;33.80;21.58;;;10.20;99.90;;;;;;5071351;28;20047;-56
2022/04/14 04:11:46;;;;;;;32.72;21.88;;;10.20;99.90;;;;;;5070964;28;20135;-52
2022/04/14 04:14:11;;;;;;;34.15;23.30;;;10.20;99.90;;;;;;5053180;28;20124;-51
2022/04/14 04:16:37;;;;;;;34.22;22.13;;;10.20;99.90;;;;;;5071115;28;20036;-51
2022/04/14 04:19:03;;;;;;;31.83;22.77;;;10.20;99.90;;;;;;5070909;28;20045;-54
2022/04/14 04:21:30;;;;;;;33.80;22.63;;;10.10;99.90;;;;;;5069867;28;20363;-50
2022/04/14 04:23:56;;;;;;;31.88;22.55;;;10.10;99.90;;;;;;5070425;28;20426;-55
2022/04/14 04:26:22;;;;;;;35.08;23.40;;;10.10;99.90;;;;;;5070021;28;20048;-51
2022/04/14 04:28:47;;;;;;;34.42;23.65;;;10.10;99.90;;;;;;5070598;28;20040;-51
2022/04/14 04:31:13;;;;;;;36.25;23.67;;;10.10;99.90;;;;;;5069681;28;20110;-51
2022/04/14 04:33:39;;;;;;;33.90;23.90;;;10.00;99.90;;;;;;5070822;28;20485;-53
2022/04/14 04:36:05;;;;;;;30.77;23.17;;;10.00;99.90;;;;;;5068992;28;20052;-53
2022/04/14 04:38:30;;;;;;;34.10;22.40;;;10.00;99.90;;;;;;5070665;28;20045;-50
2022/04/14 04:40:58;;;;;;;35.17;24.23;;;10.00;99.90;;;;;;5069231;28;20092;-54
2022/04/14 04:43:25;;;;;;;34.75;23.45;;;10.00;99.90;;;;;;5070849;28;20080;-51
2022/04/14 04:45:51;;;;;;;40.42;23.58;;;10.00;99.90;;;;;;5070452;28;20072;-53
2022/04/14 04:48:16;;;;;;;31.40;23.10;;;9.90;99.90;;;;;;5036478;28;20453;-53
2022/04/14 04:50:42;;;;;;;33.08;23.48;;;9.90;99.90;;;;;;5070659;28;20528;-54
2022/04/14 04:53:08;;;;;;;38.17;25.95;;;9.90;99.90;;;;;;5070334;28;20080;-51
2022/04/14 04:55:34;;;;;;;34.42;23.17;;;9.90;99.90;;;;;;5070664;28;20052;-54
2022/04/14 04:58:00;;;;;;;33.65;24.65;;;9.90;99.90;;;;;;5070202;28;20041;-52
2022/04/14 05:00:26;;;;;;;36.47;23.13;;;9.90;99.90;;;;;;5070913;28;20048;-52
2022/04/14 05:02:51;;;;;;;33.85;23.67;;;9.90;99.90;;;;;;5069052;28;20090;-56
2022/04/14 05:05:21;;;;;;;37.22;25.58;;;9.90;99.90;;;;;;5069960;28;20053;-52
2022/04/14 05:07:46;;;;;;;32.50;24.67;;;9.90;99.90;;;;;;5074441;28;20048;-54
2022/04/14 05:10:12;;;;;;;35.92;24.42;;;9.90;99.90;;;;;;5073033;28;20390;-54
2022/04/14 05:12:37;;;;;;;36.53;25.38;;;9.90;99.90;;;;;;5056646;28;20390;-54
2022/04/14 05:15:04;;;;;;;34.95;25.65;;;9.90;99.90;;;;;;5073187;28;20476;-53
2022/04/14 05:17:30;;;;;;;33.40;23.17;;;9.90;99.90;;;;;;5074212;28;20146;-55
2022/04/14 05:19:55;;;;;;;37.35;26.33;;;9.90;99.90;;;;;;5072594;28;20080;-51
2022/04/14 05:22:21;;;;;;;37.28;25.42;;;10.00;99.90;;;;;;5074354;28;20051;-49
2022/04/14 05:24:47;;;;;;;32.65;25.73;;;10.00;99.90;;;;;;5074459;28;20130;-50
2022/04/14 05:27:12;;;;;;;36.85;24.85;;;10.10;99.90;;;;;;5074003;28;20045;-52
2022/04/14 05:29:38;;;;;;;33.67;25.27;;;10.10;99.90;;;;;;5056168;28;20109;-52
2022/04/14 05:32:04;;;;;;;33.83;25.55;;;10.30;99.90;;;;;;5073647;28;20432;-50
2022/04/14 05:34:30;;;;;;;32.60;23.58;;;10.50;99.90;;;;;;5073652;28;20490;-51
2022/04/14 05:36:55;;;;;;;34.75;23.98;;;10.90;99.90;;;;;;5073274;28;20093;-52
2022/04/14 05:39:22;;;;;;;38.00;24.10;;;11.40;99.90;;;;;;5074108;28;20049;-52
2022/04/14 05:41:47;;;;;;;33.30;22.20;;;11.90;99.90;;;;;;5072526;28;20051;-53
2022/04/14 05:44:13;;;;;;;32.00;20.95;;;12.40;99.90;;;;;;5055695;28;20089;-53
2022/04/14 05:46:39;;;;;;;29.88;21.48;;;13.00;99.90;;;;;;5072517;28;20085;-54
2022/04/14 05:49:05;;;;;;;29.58;19.15;;;13.30;99.90;;;;;;5072195;28;20096;-53
2022/04/14 05:51:30;;;;;;;29.55;19.90;;;13.70;99.90;;;;;;5073697;28;20053;-57
2022/04/14 05:53:56;;;;;;;33.83;18.98;;;14.20;99.90;;;;;;5072362;28;20084;-56
2022/04/14 05:56:22;;;;;;;26.42;18.35;;;14.60;99.90;;;;;;5055709;28;20128;-55
2022/04/14 05:58:47;;;;;;;21.52;17.70;;;15.10;99.90;;;;;;5073666;28;20044;-57
2022/04/14 06:01:13;;;;;;;29.52;18.80;;;15.60;99.90;;;;;;5073077;28;20052;-50
2022/04/14 06:03:40;;;;;;;27.42;18.30;;;15.90;99.90;;;;;;5055555;28;20055;-53
2022/04/14 06:06:06;;;;;;;23.40;18.20;;;15.70;99.90;;;;;;5071408;28;20056;-53
2022/04/14 06:08:32;;;;;;;25.73;18.80;;;15.20;99.90;;;;;;5055461;28;20447;-54
2022/04/14 06:10:58;;;;;;;25.83;17.95;;;15.20;99.90;;;;;;5073034;28;20045;-53
2022/04/14 06:13:24;;;;;;;25.35;17.10;;;15.60;99.90;;;;;;5073200;28;20127;-52
2022/04/14 06:15:49;;;;;;;24.23;17.27;;;16.20;99.90;;;;;;5072027;28;20139;-53
2022/04/14 06:18:15;;;;;;;24.25;16.77;;;16.80;99.90;;;;;;5070395;28;20174;-56
2022/04/14 06:20:41;;;;;;;24.98;16.58;;;17.30;99.90;;;;;;5071599;28;20058;-54
2022/04/14 06:23:08;;;;;;;24.58;17.60;;;17.80;99.90;;;;;;5072723;28;20106;-52
2022/04/14 06:25:34;;;;;;;22.00;16.45;;;18.10;99.90;;;;;;5072456;28;20048;-53
2022/04/14 06:28:00;;;;;;;22.27;16.92;;;18.60;99.90;;;;;;5071607;28;20041;-54
2022/04/14 06:30:27;;;;;;;22.77;16.98;;;19.00;99.90;;;;;;5071744;28;20048;-57
2022/04/14 06:33:02;;;;;;;24.90;17.02;;;19.40;99.90;;;;;;5054817;28;20422;-54
2022/04/14 06:35:28;;;;;;;23.85;16.77;;;19.60;99.90;;;;;;5072845;28;20088;-57
2022/04/14 06:37:54;;;;;;;26.40;17.25;;;19.30;99.90;;;;;;5071606;28;20045;-58
2022/04/14 06:40:21;;;;;;;23.73;16.75;;;19.50;99.90;;;;;;5072111;28;20502;-56
2022/04/14 06:42:48;;;;;;;21.25;15.43;;;19.80;99.90;;;;;;5072516;28;20420;-56
2022/04/14 06:45:14;;;;;;;20.88;15.15;;;20.00;99.90;;;;;;5072836;28;20150;-56
2022/04/14 06:47:40;;;;;;;19.30;14.50;;;20.20;99.90;;;;;;5072992;28;20037;-52
2022/04/14 06:50:06;;;;;;;20.50;15.27;;;20.40;99.90;;;;;;5072096;28;20063;-54
2022/04/14 06:52:32;;;;;;;20.58;14.35;;;20.60;99.90;;;;;;5071630;28;20052;-54
2022/04/14 06:54:59;;;;;;;18.58;13.48;;;20.80;99.90;;;;;;5072340;28;20041;-53
2022/04/14 06:57:25;;;;;;;18.08;14.02;;;21.00;99.90;;;;;;5070992;28;20094;-55
2022/04/14 06:59:51;;;;;;;15.90;12.35;;;21.20;99.90;;;;;;5054488;28;20048;-58
2022/04/14 07:02:16;;;;;;;16.38;13.10;;;21.00;99.90;;;;;;5071945;28;20090;-54
2022/04/14 07:04:42;;;;;;;18.30;13.20;;;20.90;99.90;;;;;;5054588;28;20048;-52
2022/04/14 07:07:08;;;;;;;18.33;13.35;;;21.10;99.90;;;;;;5054449;28;20520;-60
2022/04/14 07:09:34;;;;;;;16.75;13.45;;;21.40;99.90;;;;;;5071387;28;20060;-58
2022/04/14 07:12:02;;;;;;;17.48;13.05;;;21.60;99.60;;;;;;5072279;28;20045;-58
2022/04/14 07:14:28;;;;;;;15.55;12.82;;;22.00;99.30;;;;;;5071444;28;20262;-59
2022/04/14 07:16:55;;;;;;;15.23;11.98;;;22.30;98.50;;;;;;5053671;28;20048;-56
2022/04/14 07:19:20;;;;;;;15.52;12.70;;;22.60;98.00;;;;;;5070265;28;20054;-57
2022/04/14 07:21:46;;;;;;;15.32;12.88;;;22.80;97.80;;;;;;5070684;28;20135;-59
2022/04/14 07:24:12;;;;;;;15.68;12.48;;;23.00;97.20;;;;;;5053195;28;20115;-57
2022/04/14 07:26:38;;;;;;;14.18;12.65;;;23.10;96.50;;;;;;5071706;28;20051;-57
2022/04/14 07:29:05;;;;;;;17.45;13.27;;;23.00;96.30;;;;;;5071829;28;20045;-56
2022/04/14 07:31:35;;;;;;;16.42;14.45;;;23.00;95.80;;;;;;5053570;28;20051;-58
2022/04/14 07:34:02;;;;;;;19.05;14.02;;;23.20;95.70;;;;;;5071732;28;20048;-56
2022/04/14 07:36:28;;;;;;;17.85;14.05;;;23.60;95.50;;;;;;5071296;28;20134;-56
2022/04/14 07:38:54;;;;;;;17.27;14.35;;;23.90;95.00;;;;;;5071434;28;20080;-57
2022/04/14 07:41:20;;;;;;;17.73;14.25;;;24.10;93.90;;;;;;5069584;28;20048;-58
2022/04/14 07:43:46;;;;;;;16.63;13.88;;;24.50;93.60;;;;;;5070071;28;20090;-58
2022/04/14 07:46:12;;;;;;;17.30;13.90;;;24.60;93.10;;;;;;5071295;28;20079;-56
2022/04/14 07:48:38;;;;;;;15.40;13.23;;;24.80;92.60;;;;;;5071180;28;20063;-58
2022/04/14 07:51:04;;;;;;;15.32;13.77;;;25.10;91.90;;;;;;5070934;28;20040;-59
2022/04/14 07:53:33;;;;;;;18.00;14.65;;;25.30;91.60;;;;;;5069907;28;20040;-58
2022/04/14 07:55:58;;;;;;;16.55;14.25;;;25.40;91.10;;;;;;5071501;28;20044;-58
2022/04/14 07:58:25;;;;;;;17.25;14.23;;;25.30;90.80;;;;;;5070836;28;20249;-58
2022/04/14 08:00:51;;;;;;;17.13;13.52;;;25.40;90.90;;;;;;5071521;28;20129;-59
2022/04/14 08:03:17;;;;;;;14.65;12.85;;;25.50;90.10;;;;;;5069735;28;20551;-58
2022/04/14 08:05:46;;;;;;;18.65;14.02;;;25.50;90.00;;;;;;5070036;28;20041;-58
2022/04/14 08:08:16;;;;;;;15.43;13.07;;;25.80;88.40;;;;;;5071340;28;20040;-59
2022/04/14 08:10:43;;;;;;;17.55;14.07;;;26.10;87.90;;;;;;5071197;28;20080;-58
2022/04/14 08:13:10;;;;;;;14.60;13.10;;;26.20;87.30;;;;;;5071384;28;20049;-58
2022/04/14 08:15:36;;;;;;;15.07;13.48;;;26.30;86.60;;;;;;5069901;28;20074;-58
2022/04/14 08:18:03;;;;;;;15.93;13.38;;;26.30;86.00;;;;;;5071074;28;20079;-58
2022/04/14 08:20:29;;;;;;;15.52;13.50;;;26.50;85.40;;;;;;5070730;28;20123;-58
2022/04/14 08:22:56;;;;;;;15.55;13.18;;;26.80;85.30;;;;;;5069665;28;20056;-55
2022/04/14 08:25:28;;;;;;;15.60;13.25;;;27.10;84.30;;;;;;5069434;28;20060;-60
2022/04/14 08:27:54;;;;;;;15.15;12.77;;;27.10;81.90;;;;;;5070715;28;20120;-56
2022/04/14 08:30:22;;;;;;;14.27;12.60;;;27.20;81.70;;;;;;5052778;28;20048;-56
2022/04/14 08:32:49;;;;;;;14.32;12.82;;;26.90;81.50;;;;;;5070979;28;20049;-58
2022/04/14 08:35:17;;;;;;;16.02;12.80;;;26.90;81.60;;;;;;5069820;28;20551;-58
2022/04/14 08:37:43;;;;;;;15.57;12.65;;;27.10;82.10;;;;;;5070716;28;20041;-58
2022/04/14 08:40:12;;;;;;;15.70;12.32;;;26.80;80.80;;;;;;5071142;28;20052;-58
2022/04/14 08:43:01;;;;;;;17.40;12.68;;;26.80;80.80;;;;;;5074725;28;20117;-56
2022/04/14 08:45:33;;;;;;;12.43;11.13;;;26.90;80.50;;;;;;5073433;28;20056;-59
2022/04/14 08:48:01;;;;;;;12.82;11.50;;;27.30;80.50;;;;;;5073549;28;20044;-58
2022/04/14 08:50:28;;;;;;;14.85;11.02;;;27.50;79.30;;;;;;5074209;28;20563;-58
2022/04/14 08:52:54;;;;;;;13.30;11.90;;;27.60;79.10;;;;;;5072106;28;20052;-58
2022/04/14 08:55:20;;;;;;;13.70;11.38;;;27.40;79.20;;;;;;5073238;28;20048;-59
2022/04/14 08:57:46;;;;;;;12.98;11.40;;;27.70;78.70;;;;;;5074217;28;20051;-59
2022/04/14 09:00:18;;;;;;;12.40;11.15;;;27.50;77.60;;;;;;5074814;28;20049;-60
2022/04/14 09:02:47;;;;;;;14.88;9.93;;;27.60;78.00;;;;;;5074301;28;20051;-59
2022/04/14 09:05:16;;;;;;;11.93;10.20;;;27.90;76.50;;;;;;5074566;28;20220;-60
2022/04/14 09:07:50;;;;;;;12.40;9.85;;;27.70;76.40;;;;;;5074001;28;20044;-59
2022/04/14 09:10:17;;;;;;;13.35;9.80;;;27.50;76.30;;;;;;5074337;28;20563;-59
2022/04/14 09:12:43;;;;;;;13.80;9.73;;;27.80;76.70;;;;;;5072919;28;20047;-60
2022/04/14 09:15:10;;;;;;;10.07;9.02;;;28.10;76.10;;;;;;5074100;28;20088;-59
2022/04/14 09:17:36;;;;;;;10.02;8.98;;;28.00;75.40;;;;;;5073546;28;20066;-59
2022/04/14 09:20:38;;;;;;;10.10;7.70;;;28.30;75.40;;;;;;5074290;28;20123;-59
2022/04/14 09:23:11;;;;;;;8.95;7.20;;;28.10;73.60;;;;;;5070388;28;20131;-59
2022/04/14 09:25:37;;;;;;;12.13;8.13;;;28.10;74.00;;;;;;5072346;28;20051;-60
2022/04/14 09:28:14;;;;;;;11.35;7.85;;;28.00;74.20;;;;;;5056378;28;20414;-60
2022/04/14 09:30:40;;;;;;;11.43;7.63;;;27.90;74.20;;;;;;5055379;28;20056;-61
2022/04/14 09:33:15;;;;;;;8.95;7.22;;;27.50;73.80;;;;;;5072821;28;20512;-59
2022/04/14 09:35:42;;;;;;;10.25;7.80;;;26.40;74.80;;;;;;5073394;28;20049;-60
2022/04/14 09:38:10;;;;;;;9.77;7.32;;;26.00;75.50;;;;;;5070472;28;20036;-58
2022/04/14 09:40:37;;;;;;;11.85;7.68;;;25.80;76.40;;;;;;5072156;28;20053;-56
2022/04/14 09:43:05;;;;;;;8.20;6.68;;;25.50;77.40;;;;;;5072373;28;20048;-58
2022/04/14 09:45:32;;;;;;;9.50;7.43;;;25.20;76.10;;;;;;5073775;28;20045;-58
2022/04/14 09:48:04;;;;;;;8.77;7.15;;;24.70;77.20;;;;;;5073774;28;20052;-57
2022/04/14 09:50:34;;;;;;;9.80;7.72;;;23.90;78.70;;;;;;5072410;28;20169;-59
2022/04/14 09:53:05;;;;;;;10.73;8.73;;;23.30;80.30;;;;;;5071132;28;20094;-59
2022/04/14 09:55:35;;;;;;;10.38;7.38;;;22.70;81.40;;;;;;5072957;28;20097;-57
2022/04/14 09:58:21;;;;;;;10.00;7.00;;;22.60;82.30;;;;;;5073350;28;20398;-59
2022/04/14 10:00:51;;;;;;;11.52;8.38;;;22.80;84.10;;;;;;5073247;28;20457;-58
2022/04/14 10:03:24;;;;;;;12.50;8.93;;;23.00;84.30;;;;;;5073145;28;20041;-57
2022/04/14 10:06:06;;;;;;;11.90;9.90;;;23.10;84.10;;;;;;5072937;28;20049;-60
2022/04/14 10:08:58;;;;;;;11.57;8.70;;;23.10;83.40;;;;;;5073135;28;20043;-59
2022/04/14 10:11:29;;;;;;;13.00;8.98;;;23.00;84.90;;;;;;5068050;28;20094;-57
2022/04/14 10:14:09;;;;;;;11.75;8.95;;;23.00;85.30;;;;;;5071736;28;20102;-60
2022/04/14 10:16:38;;;;;;;11.20;8.13;;;22.80;85.70;;;;;;5072924;28;20052;-59
2022/04/14 10:19:05;;;;;;;12.00;8.50;;;22.80;85.70;;;;;;5054965;28;20147;-59
2022/04/14 10:21:31;;;;;;;12.40;8.57;;;22.80;86.80;;;;;;5038485;28;20102;-59
2022/04/14 10:23:58;;;;;;;9.98;7.65;;;22.90;87.50;;;;;;5070845;28;20147;-57
2022/04/14 10:26:25;;;;;;;10.27;7.70;;;22.90;87.10;;;;;;5072102;28;20083;-59
2022/04/14 10:28:52;;;;;;;8.95;5.60;;;22.80;84.30;;;;;;5070106;28;20048;-58
2022/04/14 10:31:18;;;;;;;8.10;4.80;;;22.50;85.20;;;;;;5072441;28;20061;-57
2022/04/14 10:33:48;;;;;;;6.22;4.47;;;22.20;85.10;;;;;;5071887;28;20036;-54
2022/04/14 10:36:14;;;;;;;8.45;5.60;;;22.10;84.30;;;;;;5072488;28;20486;-56
2022/04/14 10:38:44;;;;;;;9.10;5.32;;;21.90;85.80;;;;;;5070941;28;20044;-59
2022/04/14 10:41:15;;;;;;;10.25;4.45;;;21.90;86.30;;;;;;5054985;28;20052;-59
2022/04/14 10:43:43;;;;;;;9.32;4.72;;;22.00;87.00;;;;;;5072068;28;20136;-55
2022/04/14 10:46:11;;;;;;;6.90;4.57;;;22.20;87.80;;;;;;5038528;28;20475;-56
2022/04/14 10:48:40;;;;;;;8.07;5.03;;;22.20;87.10;;;;;;5071518;28;20060;-56
2022/04/14 10:51:29;;;;;;;6.97;4.90;;;21.90;86.40;;;;;;5071627;28;20049;-56
2022/04/14 10:54:04;;;;;;;7.50;4.85;;;21.60;86.80;;;;;;5071197;28;20152;-57
2022/04/14 10:56:40;;;;;;;10.07;5.95;;;21.40;88.10;;;;;;5072489;28;20052;-57
2022/04/14 10:59:19;;;;;;;9.68;6.10;;;21.20;88.40;;;;;;5072417;28;20064;-59
2022/04/14 11:01:48;;;;;;;9.38;6.22;;;21.10;89.90;;;;;;5071728;28;20045;-57
2022/04/14 11:04:38;;;;;;;11.32;8.25;;;20.80;91.00;;;;;;5070454;28;20096;-59
2022/04/14 11:07:15;;;;;;;11.10;7.32;;;20.80;92.40;;;;;;5070770;28;20040;-55
2022/04/14 11:09:58;;;;;;;9.52;6.68;;;20.80;92.60;;;;;;5070169;28;20123;-57
2022/04/14 11:12:50;;;;;;;7.65;5.50;;;20.90;92.30;;;;;;5071747;28;20048;-54
2022/04/14 11:15:29;;;;;;;8.63;4.40;;;20.90;91.00;;;;;;5069744;28;20519;-58
2022/04/14 11:18:03;;;;;;;7.93;4.88;;;20.50;90.90;;;;;;5069675;28;20052;-53
2022/04/14 11:20:38;;;;;;;8.13;5.63;;;20.50;90.60;;;;;;5070019;28;20051;-53
2022/04/14 11:23:06;;;;;;;9.25;5.30;;;20.40;91.70;;;;;;5070779;28;20059;-56
2022/04/14 11:25:41;;;;;;;7.55;5.55;;;20.40;92.70;;;;;;5071697;28;20079;-52
2022/04/14 11:28:19;;;;;;;7.75;4.82;;;20.50;92.90;;;;;;5070308;28;20048;-56
2022/04/14 11:30:45;;;;;;;6.30;4.32;;;20.60;92.50;;;;;;5068105;28;20452;-53
2022/04/14 11:33:32;;;;;;;7.35;4.43;;;20.70;91.70;;;;;;5070911;28;20124;-57
2022/04/14 11:36:16;;;;;;;7.72;4.63;;;20.80;91.40;;;;;;5070519;28;20189;-56
2022/04/14 11:39:04;;;;;;;7.72;3.85;;;20.90;91.40;;;;;;5070224;28;20044;-55
2022/04/14 11:41:44;;;;;;;6.50;3.88;;;20.70;90.90;;;;;;5071644;28;20162;-56
2022/04/14 11:44:34;;;;;;;6.82;3.97;;;20.60;90.40;;;;;;5070873;28;20128;-54
2022/04/14 11:47:02;;;;;;;7.70;4.28;;;20.70;90.70;;;;;;5070854;28;20486;-58
2022/04/14 11:49:30;;;;;;;6.63;3.95;;;20.70;90.30;;;;;;5070083;28;20040;-55
2022/04/14 11:51:58;;;;;;;7.90;4.72;;;20.40;90.70;;;;;;5069413;28;20098;-55
2022/04/14 11:54:27;;;;;;;7.53;4.43;;;20.20;91.50;;;;;;5068599;28;20078;-54
2022/04/14 11:56:58;;;;;;;8.43;4.60;;;20.20;92.00;;;;;;5070198;28;20486;-54
2022/04/14 11:59:41;;;;;;;6.65;4.47;;;20.20;92.00;;;;;;5071173;28;20052;-57
2022/04/14 12:02:10;;;;;;;7.25;4.55;;;20.20;91.70;;;;;;5071150;28;20048;-53
2022/04/14 12:04:44;;;;;;;8.70;5.07;;;20.20;91.80;;;;;;5070697;28;20378;-53
2022/04/14 12:07:10;;;;;;;9.40;4.13;;;20.30;92.60;;;;;;5070891;28;20088;-56
2022/04/14 12:09:40;;;;;;;8.55;4.53;;;20.30;92.50;;;;;;5071103;28;20135;-53
2022/04/14 12:12:18;;;;;;;6.15;3.83;;;20.00;92.90;;;;;;5069996;28;20417;-54
2022/04/14 12:14:52;;;;;;;10.52;5.68;;;20.10;93.70;;;;;;5070970;28;20098;-51
2022/04/14 12:17:22;;;;;;;10.40;5.53;;;20.20;94.40;;;;;;5070866;28;20040;-56
2022/04/14 12:19:59;;;;;;;11.13;5.93;;;20.20;94.90;;;;;;5071011;28;20048;-56
2022/04/14 12:22:28;;;;;;;7.65;5.60;;;20.20;94.70;;;;;;5071433;28;20048;-57
2022/04/14 12:24:56;;;;;;;7.53;4.88;;;20.20;94.40;;;;;;5070918;28;20102;-56
2022/04/14 12:27:27;;;;;;;8.60;5.40;;;20.00;94.40;;;;;;5067492;28;20080;-60
2022/04/14 12:30:03;;;;;;;9.15;5.57;;;19.80;94.90;;;;;;5070151;28;20097;-52
2022/04/14 12:32:29;;;;;;;10.73;6.45;;;19.70;95.80;;;;;;5070390;28;20136;-54
2022/04/14 12:34:56;;;;;;;13.38;7.32;;;19.70;96.60;;;;;;5071209;28;20053;-52
2022/04/14 12:37:32;;;;;;;12.68;7.65;;;19.80;96.80;;;;;;5070980;28;20041;-56